Time;durP1;ratioP1;P1;durP2;ratioP2;P2;SDS_P1;SDS_P2;PMS_P1;PMS_P2;Temp;Humidity;BMP_temperature;BMP_pressure;BME280_temperature;BME280_humidity;BME280_pressure;Samples;Min_cycle;Max_cycle;Signal;HPM_P1;HPM_P2
2022/08/17 00:01:07;;;;;;;13.73;7.17;;;21.30;99.90;;;;;;4992190;28;20259;-64
2022/08/17 00:03:36;;;;;;;10.93;7.37;;;21.30;99.90;;;;;;4991389;28;20247;-64
2022/08/17 00:06:07;;;;;;;10.40;7.33;;;21.30;99.90;;;;;;4991930;28;20238;-64
2022/08/17 00:08:45;;;;;;;12.00;7.50;;;21.20;99.90;;;;;;4992117;28;20577;-64
2022/08/17 00:11:16;;;;;;;11.67;7.77;;;21.20;99.90;;;;;;4991949;28;20633;-64
2022/08/17 00:13:46;;;;;;;13.83;7.37;;;21.10;99.90;;;;;;4991722;28;20286;-64
2022/08/17 00:16:15;;;;;;;12.80;7.80;;;21.10;99.90;;;;;;4991637;28;20246;-65
2022/08/17 00:18:42;;;;;;;12.10;7.60;;;21.10;99.90;;;;;;4991820;28;20675;-64
2022/08/17 00:21:10;;;;;;;12.97;7.00;;;21.10;99.90;;;;;;4991841;28;20265;-64
2022/08/17 00:23:37;;;;;;;10.13;7.23;;;21.10;99.90;;;;;;4991802;28;20311;-64
2022/08/17 00:26:04;;;;;;;12.27;7.67;;;21.10;99.90;;;;;;4991633;28;20635;-64
2022/08/17 00:28:32;;;;;;;8.43;6.83;;;21.00;99.90;;;;;;4994974;28;20270;-64
2022/08/17 00:30:59;;;;;;;9.90;7.27;;;21.10;99.90;;;;;;4995327;28;20274;-64
2022/08/17 00:33:30;;;;;;;13.30;7.90;;;21.00;99.90;;;;;;4995203;28;20219;-64
2022/08/17 00:35:58;;;;;;;11.00;7.33;;;21.10;99.90;;;;;;4995030;28;20630;-64
2022/08/17 00:38:26;;;;;;;10.87;7.60;;;21.00;99.90;;;;;;4994797;28;20219;-64
2022/08/17 00:40:57;;;;;;;14.70;7.13;;;21.00;99.90;;;;;;4995125;28;20689;-64
2022/08/17 00:43:30;;;;;;;11.87;8.27;;;21.00;99.90;;;;;;4995030;28;20231;-64
2022/08/17 00:45:59;;;;;;;12.20;8.03;;;20.90;99.90;;;;;;4994826;28;20258;-64
2022/08/17 00:48:26;;;;;;;10.57;8.00;;;20.90;99.90;;;;;;4994980;28;20211;-64
2022/08/17 00:50:58;;;;;;;14.10;8.70;;;20.80;99.90;;;;;;4994875;28;20211;-64
2022/08/17 00:53:26;;;;;;;10.83;7.90;;;20.80;99.90;;;;;;4994794;28;20224;-64
2022/08/17 00:55:54;;;;;;;11.53;9.00;;;20.80;99.90;;;;;;4994695;28;20212;-64
2022/08/17 00:58:22;;;;;;;12.67;8.87;;;20.80;99.90;;;;;;4994713;28;20678;-64
2022/08/17 01:00:49;;;;;;;14.40;8.70;;;20.80;99.90;;;;;;4994786;28;20266;-64
2022/08/17 01:03:21;;;;;;;12.80;8.67;;;20.80;99.90;;;;;;4994596;28;20627;-64
2022/08/17 01:05:53;;;;;;;9.73;8.17;;;20.80;99.90;;;;;;4994583;28;20207;-64
2022/08/17 01:08:23;;;;;;;12.47;8.33;;;20.90;99.90;;;;;;4994776;28;20295;-64
2022/08/17 01:10:54;;;;;;;14.50;8.20;;;20.90;99.90;;;;;;4994750;28;20235;-64
2022/08/17 01:13:22;;;;;;;13.67;8.90;;;20.90;99.90;;;;;;4994427;28;20231;-64
2022/08/17 01:15:52;;;;;;;14.10;8.27;;;20.80;99.90;;;;;;4994395;28;20262;-64
2022/08/17 01:18:21;;;;;;;13.67;9.37;;;20.80;99.90;;;;;;4994855;28;20207;-64
2022/08/17 01:20:50;;;;;;;15.37;8.47;;;20.80;99.90;;;;;;4994480;28;20208;-64
2022/08/17 01:23:21;;;;;;;11.00;8.73;;;20.90;99.90;;;;;;4994275;28;20639;-64
2022/08/17 01:25:50;;;;;;;12.30;8.53;;;20.80;99.90;;;;;;4994324;28;20207;-64
2022/08/17 01:28:17;;;;;;;10.73;8.30;;;20.80;99.90;;;;;;4994166;28;20204;-64
2022/08/17 01:30:45;;;;;;;12.67;8.40;;;20.70;99.90;;;;;;4993940;28;20678;-64
2022/08/17 01:33:11;;;;;;;11.27;8.20;;;20.70;99.90;;;;;;4994323;28;20231;-64
2022/08/17 01:35:39;;;;;;;12.90;8.20;;;20.60;99.90;;;;;;4994202;28;20238;-64
2022/08/17 01:38:08;;;;;;;12.27;8.67;;;20.60;99.90;;;;;;4992543;28;20258;-64
2022/08/17 01:40:39;;;;;;;11.30;7.93;;;20.50;99.90;;;;;;4994072;28;20212;-64
2022/08/17 01:43:09;;;;;;;11.63;8.93;;;20.40;99.90;;;;;;4993686;28;20690;-64
2022/08/17 01:45:42;;;;;;;15.33;8.87;;;20.40;99.90;;;;;;4994319;28;20289;-64
2022/08/17 01:48:09;;;;;;;11.37;8.20;;;20.30;99.90;;;;;;4993694;28;20211;-64
2022/08/17 01:50:39;;;;;;;12.47;7.67;;;20.30;99.90;;;;;;4993890;28;20265;-64
2022/08/17 01:53:09;;;;;;;11.27;7.60;;;20.30;99.90;;;;;;4993947;28;20649;-64
2022/08/17 01:55:40;;;;;;;11.27;8.00;;;20.30;99.90;;;;;;4993678;28;20258;-64
2022/08/17 01:58:08;;;;;;;11.83;8.37;;;20.30;99.90;;;;;;4993633;28;20258;-64
2022/08/17 02:00:35;;;;;;;11.40;8.63;;;20.30;99.90;;;;;;4993926;28;20203;-64
2022/08/17 02:03:02;;;;;;;11.63;8.33;;;20.20;99.90;;;;;;4993600;28;20231;-64
2022/08/17 02:05:29;;;;;;;15.07;8.30;;;20.10;99.90;;;;;;4993454;28;20227;-64
2022/08/17 02:07:56;;;;;;;9.87;8.00;;;20.00;99.90;;;;;;4993254;28;20239;-64
2022/08/17 02:10:23;;;;;;;13.07;8.37;;;20.00;99.90;;;;;;4993365;28;20258;-64
2022/08/17 02:12:51;;;;;;;9.57;8.13;;;19.90;99.90;;;;;;4993542;28;20235;-65
2022/08/17 02:15:19;;;;;;;9.70;7.90;;;19.90;99.90;;;;;;4993432;28;20208;-64
2022/08/17 02:17:46;;;;;;;10.23;8.33;;;19.90;99.90;;;;;;4992823;28;20211;-64
2022/08/17 02:20:13;;;;;;;8.47;7.63;;;19.90;99.90;;;;;;4993314;28;20262;-64
2022/08/17 02:22:42;;;;;;;10.33;7.70;;;19.90;99.90;;;;;;4993194;28;20228;-64
2022/08/17 02:25:11;;;;;;;9.50;7.80;;;19.90;99.90;;;;;;4992858;28;20227;-64
2022/08/17 02:27:38;;;;;;;12.33;7.50;;;19.90;99.90;;;;;;4992904;28;20210;-65
2022/08/17 02:30:10;;;;;;;9.00;7.67;;;19.90;99.90;;;;;;4992942;28;20685;-64
2022/08/17 02:32:37;;;;;;;9.27;7.90;;;19.90;99.90;;;;;;4993116;28;20348;-64
2022/08/17 02:35:05;;;;;;;11.07;7.37;;;19.90;99.90;;;;;;4992935;28;20212;-64
2022/08/17 02:37:32;;;;;;;9.90;7.80;;;19.90;99.90;;;;;;4992603;28;20242;-64
2022/08/17 02:39:59;;;;;;;11.43;8.23;;;19.90;99.90;;;;;;4992700;28;20204;-64
2022/08/17 02:42:28;;;;;;;11.10;8.63;;;19.90;99.90;;;;;;4992985;28;20232;-64
2022/08/17 02:44:54;;;;;;;9.43;8.03;;;19.90;99.90;;;;;;4992980;28;20228;-64
2022/08/17 02:47:23;;;;;;;12.03;8.13;;;19.90;99.90;;;;;;4992447;28;20261;-64
2022/08/17 02:49:50;;;;;;;10.90;8.10;;;19.90;99.90;;;;;;4992408;28;20269;-64
2022/08/17 02:52:17;;;;;;;9.07;7.50;;;19.80;99.90;;;;;;4992522;28;20231;-64
2022/08/17 02:54:43;;;;;;;12.07;7.83;;;19.90;99.90;;;;;;4993040;28;20211;-64
2022/08/17 02:57:10;;;;;;;10.77;7.40;;;19.80;99.90;;;;;;4992607;28;20307;-64
2022/08/17 02:59:38;;;;;;;11.43;7.17;;;19.80;99.90;;;;;;4992706;28;20209;-65
2022/08/17 03:02:06;;;;;;;8.40;7.50;;;19.80;99.90;;;;;;4992519;28;20652;-64
2022/08/17 03:04:34;;;;;;;10.20;8.00;;;19.80;99.90;;;;;;4992501;28;20308;-64
2022/08/17 03:07:01;;;;;;;10.07;7.90;;;19.80;99.90;;;;;;4992094;28;20674;-64
2022/08/17 03:09:28;;;;;;;9.80;7.20;;;19.80;99.90;;;;;;4992461;28;20270;-64
2022/08/17 03:11:55;;;;;;;8.73;7.50;;;19.80;99.90;;;;;;4992460;28;20286;-64
2022/08/17 03:14:21;;;;;;;10.77;7.27;;;19.80;99.90;;;;;;4992443;28;20243;-65
2022/08/17 03:16:48;;;;;;;9.90;7.57;;;19.70;99.90;;;;;;4992146;28;20207;-64
2022/08/17 03:19:15;;;;;;;8.30;7.37;;;19.70;99.90;;;;;;4992246;28;20253;-64
2022/08/17 03:21:42;;;;;;;10.93;7.70;;;19.70;99.90;;;;;;4992569;28;20212;-64
2022/08/17 03:24:09;;;;;;;11.43;8.17;;;19.70;99.90;;;;;;4992559;28;20273;-64
2022/08/17 03:26:36;;;;;;;10.80;7.97;;;19.70;99.90;;;;;;4992310;28;20286;-64
2022/08/17 03:29:03;;;;;;;9.30;7.90;;;19.70;99.90;;;;;;4992366;28;20212;-64
2022/08/17 03:31:30;;;;;;;10.80;7.40;;;19.60;99.90;;;;;;4992045;28;20220;-64
2022/08/17 03:33:56;;;;;;;9.43;8.40;;;19.60;99.90;;;;;;4992013;28;20208;-64
2022/08/17 03:36:23;;;;;;;9.43;7.50;;;19.60;99.90;;;;;;4992066;28;20258;-64
2022/08/17 03:38:51;;;;;;;10.33;7.53;;;19.60;99.90;;;;;;4992230;28;20214;-64
2022/08/17 03:41:18;;;;;;;9.53;7.93;;;19.50;99.90;;;;;;4992173;28;20208;-64
2022/08/17 03:43:45;;;;;;;9.07;7.20;;;19.50;99.90;;;;;;4992012;28;20227;-64
2022/08/17 03:57:15;;;;;;;9.77;7.70;;;19.40;99.90;;;;;;4991971;28;20623;-64
2022/08/17 03:59:42;;;;;;;7.90;6.90;;;19.40;99.90;;;;;;4992205;28;20214;-64
2022/08/17 04:02:15;;;;;;;9.63;7.03;;;19.40;99.90;;;;;;4993759;28;20274;-64
2022/08/17 04:04:42;;;;;;;10.03;7.37;;;19.40;99.90;;;;;;4995991;28;20278;-64
2022/08/17 04:07:09;;;;;;;12.27;7.00;;;19.40;99.90;;;;;;4995191;28;20671;-64
2022/08/17 04:09:37;;;;;;;8.00;6.80;;;19.40;99.90;;;;;;4995888;28;20265;-64
2022/08/17 04:12:04;;;;;;;9.60;7.10;;;19.40;99.90;;;;;;4995684;28;20232;-64
2022/08/17 04:14:35;;;;;;;8.17;6.87;;;19.40;99.90;;;;;;4995706;28;20199;-64
2022/08/17 04:17:01;;;;;;;8.53;6.93;;;19.40;99.90;;;;;;4995280;28;20208;-64
2022/08/17 04:19:28;;;;;;;8.90;6.83;;;19.40;99.90;;;;;;4995567;28;20214;-64
2022/08/17 04:21:56;;;;;;;8.97;6.83;;;19.40;99.90;;;;;;4995218;28;20305;-64
2022/08/17 04:24:23;;;;;;;7.97;6.30;;;19.40;99.90;;;;;;4995508;28;20230;-64
2022/08/17 04:26:51;;;;;;;8.43;6.70;;;19.40;99.90;;;;;;4995073;28;20208;-64
2022/08/17 04:29:17;;;;;;;9.07;6.53;;;19.40;99.90;;;;;;4995259;28;20278;-64
2022/08/17 04:31:45;;;;;;;11.73;6.63;;;19.40;99.90;;;;;;4995119;28;20270;-64
2022/08/17 04:34:11;;;;;;;10.13;6.83;;;19.40;99.90;;;;;;4995209;28;20347;-64
2022/08/17 04:36:38;;;;;;;9.00;6.67;;;19.40;99.90;;;;;;4994934;28;20311;-64
2022/08/17 04:39:05;;;;;;;8.00;6.37;;;19.50;99.90;;;;;;4995225;28;20266;-64
2022/08/17 04:44:16;;;;;;;11.03;6.00;;;19.40;99.90;;;;;;4990971;28;20213;-64
2022/08/17 04:46:43;;;;;;;10.73;5.90;;;19.50;99.90;;;;;;4994682;28;20208;-64
2022/08/17 04:49:11;;;;;;;6.50;5.80;;;19.50;99.90;;;;;;4995093;28;20211;-64
2022/08/17 04:51:40;;;;;;;7.00;5.90;;;19.50;99.90;;;;;;4994778;28;20678;-64
2022/08/17 04:54:08;;;;;;;6.87;5.67;;;19.60;99.90;;;;;;4994910;28;20235;-64
2022/08/17 04:56:35;;;;;;;6.50;5.80;;;19.70;99.90;;;;;;4994494;28;20226;-64
2022/08/17 04:59:06;;;;;;;9.47;6.00;;;19.70;99.90;;;;;;4994663;28;20208;-64
2022/08/17 05:01:36;;;;;;;7.83;6.00;;;19.80;99.90;;;;;;4994817;28;20211;-64
2022/08/17 05:04:05;;;;;;;6.53;5.50;;;19.80;99.90;;;;;;4994856;28;20207;-61
2022/08/17 05:06:32;;;;;;;8.40;5.60;;;19.90;99.90;;;;;;4994426;28;20228;-61
2022/08/17 05:08:59;;;;;;;10.07;7.63;;;19.90;99.90;;;;;;4994719;28;20621;-64
2022/08/17 05:11:27;;;;;;;8.03;6.23;;;20.00;99.90;;;;;;4994758;28;20265;-64
2022/08/17 05:13:55;;;;;;;6.70;6.00;;;20.00;99.90;;;;;;4994579;28;20223;-64
2022/08/17 05:16:24;;;;;;;6.10;5.20;;;20.10;99.90;;;;;;4994568;28;20629;-64
2022/08/17 05:18:52;;;;;;;7.23;5.23;;;20.10;99.90;;;;;;4994930;28;20651;-64
2022/08/17 05:21:19;;;;;;;6.07;4.90;;;20.20;99.90;;;;;;4994636;28;20616;-64
2022/08/17 05:23:46;;;;;;;7.37;5.23;;;20.30;99.90;;;;;;4994643;28;20736;-64
2022/08/17 05:26:15;;;;;;;5.20;4.70;;;20.30;99.90;;;;;;4993837;28;20242;-64
2022/08/17 05:28:41;;;;;;;7.63;5.10;;;20.40;99.90;;;;;;4994279;28;20208;-65
2022/08/17 05:31:08;;;;;;;5.93;4.87;;;20.50;99.90;;;;;;4994193;28;20216;-64
2022/08/17 05:33:38;;;;;;;6.07;4.30;;;20.60;99.90;;;;;;4994227;28;20280;-64
2022/08/17 05:36:10;;;;;;;6.33;4.33;;;20.60;99.90;;;;;;4993684;28;20634;-64
2022/08/17 05:38:37;;;;;;;8.37;4.37;;;20.70;99.90;;;;;;4993667;28;20273;-64
2022/08/17 05:41:06;;;;;;;5.60;4.47;;;20.80;99.90;;;;;;4993860;28;20626;-64
2022/08/17 05:43:35;;;;;;;8.90;4.80;;;20.90;99.90;;;;;;4994027;28;20602;-64
2022/08/17 05:46:04;;;;;;;8.40;4.60;;;21.00;99.90;;;;;;4993571;28;20251;-64
2022/08/17 05:48:35;;;;;;;6.17;4.70;;;21.10;99.90;;;;;;4993922;28;20239;-64
2022/08/17 05:51:15;;;;;;;5.97;4.10;;;21.20;99.90;;;;;;4993865;28;20216;-64
2022/08/17 05:53:48;;;;;;;6.43;4.63;;;21.30;99.90;;;;;;4993810;28;20227;-64
2022/08/17 05:56:24;;;;;;;5.60;4.33;;;21.40;99.90;;;;;;4993528;28;20239;-64
2022/08/17 05:58:59;;;;;;;4.60;3.80;;;21.50;99.90;;;;;;4993642;28;20206;-64
2022/08/17 06:01:33;;;;;;;5.33;3.77;;;21.60;99.90;;;;;;4993610;28;20211;-64
2022/08/17 06:04:11;;;;;;;5.13;4.03;;;21.70;99.90;;;;;;4993260;28;20208;-64
2022/08/17 06:06:45;;;;;;;5.70;4.33;;;21.80;99.90;;;;;;4993198;28;20228;-64
2022/08/17 06:09:29;;;;;;;7.53;4.70;;;21.90;99.90;;;;;;4993520;28;20254;-64
2022/08/17 06:12:02;;;;;;;7.57;3.90;;;22.00;99.90;;;;;;4993598;28;20227;-64
2022/08/17 06:14:45;;;;;;;5.90;4.00;;;22.20;99.90;;;;;;4993729;28;20223;-64
2022/08/17 06:17:16;;;;;;;4.93;3.97;;;22.30;99.90;;;;;;4993608;28;20215;-64
2022/08/17 06:19:47;;;;;;;6.73;3.73;;;22.40;99.90;;;;;;4993300;28;20215;-64
2022/08/17 06:22:18;;;;;;;6.63;3.90;;;22.50;99.90;;;;;;4993250;28;20242;-64
2022/08/17 06:24:51;;;;;;;6.27;3.93;;;22.60;99.90;;;;;;4992485;28;20212;-64
2022/08/17 06:27:25;;;;;;;4.33;3.90;;;22.70;99.90;;;;;;4993048;28;20245;-64
2022/08/17 06:29:56;;;;;;;6.60;3.87;;;22.70;99.90;;;;;;4993210;28;20261;-64
2022/08/17 06:32:23;;;;;;;7.57;4.33;;;22.80;99.90;;;;;;4993266;28;20726;-66
2022/08/17 06:34:51;;;;;;;8.13;4.10;;;22.90;99.90;;;;;;4992989;28;20208;-66
2022/08/17 06:37:52;;;;;;;6.83;4.50;;;22.90;99.90;;;;;;4992528;28;20212;-66
2022/08/17 06:40:34;;;;;;;6.43;4.33;;;23.00;99.90;;;;;;4988122;28;20204;-66
2022/08/17 06:43:14;;;;;;;8.53;4.17;;;23.00;99.90;;;;;;4992819;28;20228;-66
2022/08/17 06:45:47;;;;;;;5.50;3.63;;;22.90;99.90;;;;;;4992799;28;20286;-66
2022/08/17 06:48:24;;;;;;;4.37;3.83;;;23.00;99.90;;;;;;4992401;28;20230;-66
2022/08/17 06:50:54;;;;;;;5.27;4.37;;;23.10;99.90;;;;;;4992664;28;20563;-66
2022/08/17 06:53:26;;;;;;;8.37;3.83;;;23.10;99.90;;;;;;4992641;28;20609;-66
2022/08/17 06:55:59;;;;;;;6.77;4.00;;;23.20;99.90;;;;;;4992216;28;20266;-66
2022/08/17 06:58:30;;;;;;;6.10;4.43;;;23.20;99.90;;;;;;4992865;28;20239;-65
2022/08/17 07:01:03;;;;;;;6.63;4.17;;;23.30;99.90;;;;;;4992652;28;20243;-65
2022/08/17 07:03:36;;;;;;;5.50;4.60;;;23.40;99.90;;;;;;4992523;28;20301;-65
2022/08/17 07:06:06;;;;;;;7.77;4.10;;;23.40;99.90;;;;;;4992145;28;20671;-65
2022/08/17 07:08:43;;;;;;;4.93;4.10;;;23.40;99.90;;;;;;4992442;28;20270;-65
2022/08/17 07:11:14;;;;;;;6.37;4.30;;;23.50;99.90;;;;;;4992644;28;20262;-66
2022/08/17 07:13:48;;;;;;;5.37;4.13;;;23.50;99.90;;;;;;4992406;28;20223;-65
2022/08/17 07:16:20;;;;;;;5.57;4.00;;;23.60;99.90;;;;;;4992218;28;20290;-65
2022/08/17 07:18:49;;;;;;;5.33;4.37;;;23.60;99.90;;;;;;4992259;28;20329;-66
2022/08/17 07:21:29;;;;;;;5.93;4.00;;;23.60;99.90;;;;;;4992525;28;20207;-65
2022/08/17 07:24:06;;;;;;;5.80;4.27;;;23.50;99.90;;;;;;4992453;28;20218;-65
2022/08/17 07:26:33;;;;;;;6.43;4.20;;;23.60;99.90;;;;;;4991987;28;20235;-65
2022/08/17 07:29:01;;;;;;;5.67;4.50;;;23.50;99.90;;;;;;4992266;28;20207;-65
2022/08/17 07:31:32;;;;;;;9.17;4.37;;;23.60;99.90;;;;;;4992080;28;20628;-65
2022/08/17 07:34:05;;;;;;;8.77;4.33;;;23.60;99.90;;;;;;4992149;28;20207;-66
2022/08/17 07:36:33;;;;;;;8.07;4.30;;;23.70;99.90;;;;;;4994621;28;20199;-65
2022/08/17 07:39:03;;;;;;;5.10;4.20;;;23.70;99.90;;;;;;4996351;28;20242;-65
2022/08/17 07:41:34;;;;;;;9.07;4.80;;;23.90;99.90;;;;;;4996096;28;20258;-65
2022/08/17 07:44:01;;;;;;;7.83;4.67;;;23.90;99.90;;;;;;4996296;28;20211;-65
2022/08/17 07:49:33;;;;;;;6.13;4.13;;;23.80;99.90;;;;;;4987389;28;20211;-65
2022/08/17 07:52:04;;;;;;;7.60;3.97;;;23.90;99.90;;;;;;4993400;28;20318;-65
2022/08/17 07:54:35;;;;;;;7.07;3.80;;;24.10;99.90;;;;;;4995559;28;20270;-65
2022/08/17 07:57:24;;;;;;;7.57;4.03;;;24.20;99.90;;;;;;4995279;28;20207;-65
2022/08/17 08:00:15;;;;;;;7.40;4.17;;;24.30;99.90;;;;;;4995303;28;20212;-65
2022/08/17 08:02:46;;;;;;;10.97;4.20;;;24.20;99.90;;;;;;4995149;28;20294;-64
2022/08/17 08:05:19;;;;;;;8.00;4.20;;;24.10;99.90;;;;;;4995419;28;20207;-64
2022/08/17 08:07:53;;;;;;;4.57;3.97;;;24.20;99.90;;;;;;4991570;28;20234;-65
2022/08/17 08:10:31;;;;;;;5.73;4.57;;;24.40;99.90;;;;;;4994848;28;20238;-66
2022/08/17 08:13:06;;;;;;;5.30;4.27;;;24.40;99.90;;;;;;4994682;28;20258;-66
2022/08/17 08:15:36;;;;;;;6.90;4.83;;;24.40;99.90;;;;;;4995232;28;20326;-65
2022/08/17 08:18:05;;;;;;;8.03;4.43;;;24.60;99.90;;;;;;4994940;28;20196;-64
2022/08/17 08:20:39;;;;;;;5.70;4.50;;;24.80;99.90;;;;;;4994800;28;20214;-64
2022/08/17 08:23:14;;;;;;;6.70;4.57;;;24.80;99.90;;;;;;4994885;28;20255;-64
2022/08/17 08:25:55;;;;;;;8.10;5.03;;;25.20;99.90;;;;;;4995114;28;20207;-66
2022/08/17 08:28:36;;;;;;;9.77;5.07;;;25.40;99.90;;;;;;4994890;28;20203;-66
2022/08/17 08:31:12;;;;;;;8.00;5.63;;;25.60;99.90;;;;;;4994138;28;20710;-66
2022/08/17 08:33:50;;;;;;;8.93;5.70;;;25.50;99.90;;;;;;4994900;28;20277;-66
2022/08/17 08:36:29;;;;;;;7.63;5.73;;;25.70;99.90;;;;;;4994439;28;20663;-67
2022/08/17 08:39:03;;;;;;;8.83;5.30;;;25.70;99.90;;;;;;4992721;28;20278;-67
2022/08/17 08:41:40;;;;;;;8.77;5.67;;;25.80;99.90;;;;;;4994225;28;20207;-68
2022/08/17 08:44:23;;;;;;;13.60;6.30;;;26.00;99.90;;;;;;4994419;28;20682;-67
2022/08/17 08:46:58;;;;;;;9.60;6.47;;;25.90;99.90;;;;;;4993250;28;20809;-66
2022/08/17 08:49:56;;;;;;;8.47;6.00;;;25.60;99.90;;;;;;4994211;28;20222;-66
2022/08/17 08:52:37;;;;;;;6.33;5.73;;;25.60;99.90;;;;;;4994599;28;20234;-67
2022/08/17 08:55:13;;;;;;;7.10;5.47;;;25.80;99.90;;;;;;4995523;28;20678;-67
2022/08/17 08:57:49;;;;;;;8.93;5.70;;;26.10;99.90;;;;;;4995336;28;20211;-66
2022/08/17 09:00:18;;;;;;;12.00;5.90;;;26.20;99.90;;;;;;4994029;28;20745;-66
2022/08/17 09:03:20;;;;;;;9.80;6.57;;;26.40;99.90;;;;;;4993292;28;20224;-68
2022/08/17 09:06:07;;;;;;;7.13;5.93;;;26.20;99.90;;;;;;4994279;28;20218;-67
2022/08/17 09:08:50;;;;;;;8.73;6.23;;;25.90;99.90;;;;;;4993731;28;20211;-66
2022/08/17 09:11:24;;;;;;;6.20;5.43;;;25.60;99.90;;;;;;4993687;28;20203;-66
2022/08/17 09:14:03;;;;;;;9.70;6.23;;;25.60;99.90;;;;;;4994165;28;20239;-67
2022/08/17 09:16:36;;;;;;;8.97;5.87;;;25.50;99.90;;;;;;4993344;28;20208;-67
2022/08/17 09:19:09;;;;;;;13.60;6.77;;;25.50;99.90;;;;;;4994033;28;20208;-67
2022/08/17 09:21:43;;;;;;;7.50;6.13;;;25.40;99.90;;;;;;4993757;28;20218;-66
2022/08/17 09:24:17;;;;;;;10.40;6.53;;;25.30;99.90;;;;;;4993984;28;20208;-66
2022/08/17 09:26:48;;;;;;;10.20;6.60;;;25.20;99.90;;;;;;4992781;28;20785;-66
2022/08/17 09:29:23;;;;;;;12.27;6.60;;;25.10;99.90;;;;;;4992943;28;20242;-66
2022/08/17 09:31:54;;;;;;;13.27;7.00;;;25.00;99.90;;;;;;4993109;28;20234;-66
2022/08/17 09:34:27;;;;;;;8.80;6.10;;;25.00;99.90;;;;;;4993525;28;20302;-66
2022/08/17 09:37:02;;;;;;;13.43;6.80;;;24.90;99.90;;;;;;4993244;28;20203;-67
2022/08/17 09:39:36;;;;;;;9.40;7.43;;;24.70;99.90;;;;;;4993098;28;20207;-67
2022/08/17 09:42:10;;;;;;;9.37;7.53;;;24.70;99.90;;;;;;4993366;28;20235;-67
2022/08/17 09:44:40;;;;;;;10.13;7.57;;;24.80;99.90;;;;;;4993075;28;20581;-67
2022/08/17 09:47:14;;;;;;;10.07;7.40;;;24.70;99.90;;;;;;4993018;28;20279;-67
2022/08/17 09:49:46;;;;;;;8.80;7.37;;;24.40;99.90;;;;;;4993155;28;20215;-68
2022/08/17 09:52:19;;;;;;;11.27;7.53;;;24.50;99.90;;;;;;4992600;28;20227;-67
2022/08/17 09:54:48;;;;;;;11.20;8.03;;;24.50;99.90;;;;;;4992935;28;20207;-67
2022/08/17 09:57:26;;;;;;;10.77;8.07;;;24.50;99.90;;;;;;4992519;28;20215;-66
2022/08/17 10:00:10;;;;;;;10.37;7.63;;;24.50;99.90;;;;;;4992134;28;20203;-65
2022/08/17 10:03:04;;;;;;;9.60;7.97;;;24.50;99.90;;;;;;4992819;28;20857;-65
2022/08/17 10:05:45;;;;;;;11.67;7.97;;;24.50;99.90;;;;;;4989533;28;20212;-64
2022/08/17 10:08:24;;;;;;;17.07;8.90;;;24.40;99.90;;;;;;4992752;28;20203;-67
2022/08/17 10:11:02;;;;;;;10.07;8.43;;;24.40;99.90;;;;;;4991595;28;20207;-67
2022/08/17 10:13:39;;;;;;;14.63;8.30;;;24.30;99.90;;;;;;4992361;28;20285;-66
2022/08/17 10:16:17;;;;;;;11.97;7.60;;;24.30;99.90;;;;;;4992231;28;20210;-66
2022/08/17 10:18:53;;;;;;;13.93;8.83;;;24.40;99.90;;;;;;4992929;28;20210;-65
2022/08/17 10:27:18;;;;;;;10.43;9.33;;;24.10;99.90;;;;;;5051931;28;20698;-64
2022/08/17 10:29:48;;;;;;;10.47;8.30;;;24.20;99.90;;;;;;5088404;28;20200;-64
2022/08/17 10:32:23;;;;;;;17.97;9.00;;;23.90;99.90;;;;;;5088775;28;20455;-63
2022/08/17 10:35:15;;;;;;;10.93;8.80;;;23.70;99.90;;;;;;5088727;28;20216;-63
2022/08/17 10:38:03;;;;;;;15.63;9.97;;;23.60;99.90;;;;;;5088545;28;20204;-64
2022/08/17 10:40:36;;;;;;;12.73;9.37;;;23.40;99.90;;;;;;5074738;28;20232;-64
2022/08/17 10:43:18;;;;;;;11.40;9.40;;;23.20;99.90;;;;;;5088087;28;20224;-64
2022/08/17 10:45:52;;;;;;;13.17;9.80;;;23.30;99.90;;;;;;5088416;28;20204;-64
2022/08/17 10:48:32;;;;;;;12.90;9.73;;;23.30;99.90;;;;;;5088487;28;20239;-64
2022/08/17 10:51:02;;;;;;;15.33;9.90;;;23.20;99.90;;;;;;5087667;28;20729;-66
2022/08/17 10:54:05;;;;;;;19.13;10.63;;;23.30;99.90;;;;;;5087963;28;20224;-64
2022/08/17 10:56:49;;;;;;;11.53;9.80;;;23.20;99.90;;;;;;5084290;28;20660;-64
2022/08/17 10:59:49;;;;;;;12.30;9.87;;;23.10;99.90;;;;;;5087763;28;20646;-62
2022/08/17 11:02:24;;;;;;;14.93;11.13;;;23.20;99.90;;;;;;5088168;28;20288;-62
2022/08/17 11:05:30;;;;;;;18.03;11.30;;;23.30;99.90;;;;;;5087575;28;20685;-62
2022/08/17 11:08:25;;;;;;;14.33;11.07;;;23.40;99.90;;;;;;5087228;28;20667;-62
2022/08/17 11:11:10;;;;;;;14.07;11.93;;;23.40;99.90;;;;;;5086458;28;20246;-61
2022/08/17 11:13:47;;;;;;;15.93;12.73;;;23.40;99.90;;;;;;5087977;28;20251;-60
2022/08/17 11:16:32;;;;;;;14.70;12.27;;;23.40;99.90;;;;;;5087881;28;20558;-60
2022/08/17 11:19:35;;;;;;;14.67;12.40;;;23.40;99.90;;;;;;5088127;28;20231;-61
2022/08/17 11:22:32;;;;;;;14.77;11.50;;;23.30;99.90;;;;;;5063932;28;20228;-61
2022/08/17 11:25:11;;;;;;;14.23;12.23;;;23.30;99.90;;;;;;5088390;28;20219;-61
2022/08/17 11:27:38;;;;;;;15.00;12.30;;;23.30;99.90;;;;;;5087918;28;20258;-61
2022/08/17 11:30:10;;;;;;;17.30;12.97;;;23.30;99.90;;;;;;5087860;28;20257;-61
2022/08/17 11:32:41;;;;;;;18.43;12.90;;;23.30;99.90;;;;;;5075372;28;20274;-62
2022/08/17 11:35:32;;;;;;;18.07;14.70;;;23.30;99.90;;;;;;5074437;28;20212;-61
2022/08/17 11:38:11;;;;;;;16.73;13.97;;;23.30;99.90;;;;;;5074443;28;20208;-62
2022/08/17 11:40:54;;;;;;;21.17;14.30;;;23.40;99.90;;;;;;5074715;28;20248;-61
2022/08/17 11:44:13;;;;;;;19.30;13.67;;;23.40;99.90;;;;;;5074824;28;20221;-62
2022/08/17 11:52:48;;;;;;;20.00;14.67;;;23.50;99.90;;;;;;5074387;28;20710;-61
2022/08/17 11:56:00;;;;;;;18.40;15.17;;;23.50;99.90;;;;;;5074398;28;20270;-61
2022/08/17 11:58:38;;;;;;;21.07;14.83;;;23.40;99.90;;;;;;5012094;28;20299;-61
2022/08/17 12:01:06;;;;;;;17.70;14.50;;;23.40;99.90;;;;;;5064265;28;20247;-62
2022/08/17 12:03:47;;;;;;;16.30;14.63;;;23.40;99.90;;;;;;5074167;28;20228;-62
2022/08/17 12:06:29;;;;;;;16.97;14.77;;;23.50;99.90;;;;;;5073760;28;20291;-61
2022/08/17 12:09:00;;;;;;;22.83;16.60;;;23.60;99.90;;;;;;5074200;28;20205;-61
2022/08/17 12:11:32;;;;;;;18.93;15.33;;;23.60;99.90;;;;;;5074040;28;20200;-66
2022/08/17 12:14:00;;;;;;;20.60;15.30;;;23.70;99.90;;;;;;5060152;28;20216;-63
2022/08/17 12:16:27;;;;;;;22.10;18.87;;;23.60;99.90;;;;;;5072337;28;20209;-63
2022/08/17 12:18:58;;;;;;;21.03;18.43;;;23.70;99.90;;;;;;5073083;28;20698;-63
2022/08/17 12:21:48;;;;;;;21.93;19.57;;;23.50;99.90;;;;;;5073203;28;20232;-63
2022/08/17 12:24:31;;;;;;;23.93;19.30;;;23.50;99.90;;;;;;5072920;28;20628;-63
2022/08/17 12:26:59;;;;;;;22.80;18.00;;;23.70;99.90;;;;;;5072625;28;20889;-63
2022/08/17 12:29:28;;;;;;;23.33;18.33;;;24.00;99.90;;;;;;5072034;28;20703;-63
2022/08/17 12:31:56;;;;;;;22.03;17.93;;;24.40;99.90;;;;;;5073240;28;20598;-63
2022/08/17 12:34:29;;;;;;;22.30;18.37;;;24.60;99.90;;;;;;5073030;28;20205;-63
2022/08/17 12:37:00;;;;;;;23.57;16.63;;;24.80;99.90;;;;;;5072831;28;20220;-63
2022/08/17 12:39:29;;;;;;;22.97;19.07;;;25.00;99.90;;;;;;5073041;28;20702;-63
2022/08/17 12:41:59;;;;;;;25.10;18.40;;;25.20;99.90;;;;;;5072707;28;20232;-62
2022/08/17 12:44:27;;;;;;;22.33;18.23;;;25.20;99.90;;;;;;5071867;28;20274;-64
2022/08/17 12:46:59;;;;;;;25.10;16.53;;;25.00;99.90;;;;;;5072490;28;20223;-63
2022/08/17 12:49:30;;;;;;;20.97;17.10;;;25.20;99.90;;;;;;5072680;28;20213;-63
2022/08/17 12:52:13;;;;;;;25.17;19.67;;;25.50;99.90;;;;;;5072438;28;20216;-63
2022/08/17 12:54:55;;;;;;;26.13;19.70;;;25.60;99.90;;;;;;5072146;28;20687;-63
2022/08/17 12:57:25;;;;;;;28.37;19.73;;;25.80;99.90;;;;;;5072087;28;20212;-61
2022/08/17 12:59:58;;;;;;;25.50;21.23;;;25.90;99.90;;;;;;5072405;28;20620;-62
2022/08/17 13:02:44;;;;;;;28.57;22.57;;;25.90;99.90;;;;;;5072129;28;20258;-63
2022/08/17 13:05:23;;;;;;;29.50;22.07;;;25.70;99.90;;;;;;5072175;28;20220;-62
2022/08/17 13:07:51;;;;;;;27.60;20.10;;;25.90;99.90;;;;;;5072151;28;20212;-62
2022/08/17 13:10:24;;;;;;;31.87;25.47;;;26.00;99.90;;;;;;5072295;28;20201;-62
2022/08/17 13:12:52;;;;;;;27.73;21.93;;;26.00;99.90;;;;;;5071938;28;20224;-66
2022/08/17 13:15:25;;;;;;;32.07;23.13;;;26.20;99.90;;;;;;5071919;28;20300;-66
2022/08/17 13:18:02;;;;;;;27.13;23.27;;;26.00;99.90;;;;;;5071801;28;20671;-66
2022/08/17 13:20:31;;;;;;;28.67;22.13;;;25.80;99.90;;;;;;5071753;28;20220;-66
2022/08/17 13:23:00;;;;;;;28.50;21.80;;;25.90;99.90;;;;;;5072098;28;20252;-64
2022/08/17 13:25:28;;;;;;;27.17;22.23;;;26.20;99.90;;;;;;5071424;28;20559;-65
2022/08/17 13:27:56;;;;;;;29.63;23.13;;;26.40;99.90;;;;;;5071720;28;20208;-65
2022/08/17 13:30:26;;;;;;;31.57;23.50;;;26.30;99.90;;;;;;5071662;28;20205;-66
2022/08/17 13:32:54;;;;;;;28.57;22.87;;;26.60;99.90;;;;;;5071543;28;20233;-64
2022/08/17 13:35:40;;;;;;;32.63;25.50;;;26.50;99.90;;;;;;5071497;28;20217;-65
2022/08/17 13:38:10;;;;;;;36.87;26.30;;;26.20;99.90;;;;;;5071252;28;20270;-66